Archival Weather

Heathrow

London, United Kingdom (EGLL)

Report from: Friday, June 21, 2024 6:50 PM BST
Current time: Sunday, July 14, 2024 11:43 AM BST

Current weather – Weather history – Daily summaries
Weather forecast

Temperature21.0°C (69.8°F)
Dew point8.0°C (46.4°F)
Winds 16 kts (8.2 m/s, 18.4 mph) West-Southwest (240°)
Visibility6.2 mi. (10 km)
Clouds Sky clear
Altimeter29.85 in.Hg (1011 mB)
Relative humidity43 %
Density altitude931 ft. (284 m)
Remarks Fully automated report
No clouds detected
No significant changes expected in the next two hours
Flight conditions Visual Meteorological Conditions
Raw dataEGLL 211750Z AUTO 24016KT 9999 NCD 21/08 Q1011 NOSIG
An error has occurred. This application may no longer respond until reloaded. Reload 🗙